Time;durP1;ratioP1;P1;durP2;ratioP2;P2;SDS_P1;SDS_P2;PMS_P1;PMS_P2;Temp;Humidity;BMP_temperature;BMP_pressure;BME280_temperature;BME280_humidity;BME280_pressure;Samples;Min_cycle;Max_cycle;Signal;HPM_P1;HPM_P2
2023/10/04 00:00:59;;;;;;;159.80;94.55;;;27.90;99.90;;;;;;5085798;28;20398;-69
2023/10/04 00:03:27;;;;;;;160.32;98.90;;;27.90;99.90;;;;;;5088175;28;20043;-68
2023/10/04 00:05:57;;;;;;;187.60;108.55;;;27.90;99.90;;;;;;5075660;28;20032;-67
2023/10/04 00:08:25;;;;;;;203.65;125.60;;;28.00;99.90;;;;;;5076005;28;20379;-69
2023/10/04 00:10:51;;;;;;;239.95;148.63;;;28.00;99.90;;;;;;5075634;28;20067;-67
2023/10/04 00:13:18;;;;;;;262.42;161.65;;;28.10;99.90;;;;;;5075562;28;20013;-68
2023/10/04 00:15:45;;;;;;;285.45;178.10;;;28.10;99.90;;;;;;5080660;28;20032;-68
2023/10/04 00:18:11;;;;;;;279.35;168.48;;;28.10;99.90;;;;;;5087725;28;20389;-67
2023/10/04 00:20:38;;;;;;;266.40;159.80;;;28.20;99.90;;;;;;5086676;28;20024;-69
2023/10/04 00:23:05;;;;;;;268.27;159.75;;;28.10;99.90;;;;;;5090249;28;20024;-67
2023/10/04 00:25:34;;;;;;;262.38;155.57;;;28.20;99.90;;;;;;5095933;28;20032;-68
2023/10/04 00:28:02;;;;;;;234.23;142.93;;;28.20;99.90;;;;;;5090509;28;20033;-66
2023/10/04 00:30:29;;;;;;;223.48;133.82;;;28.30;99.90;;;;;;5089480;28;20059;-68
2023/10/04 00:32:57;;;;;;;246.38;131.13;;;28.30;99.90;;;;;;5081309;28;20107;-66
2023/10/04 00:35:25;;;;;;;196.73;114.13;;;28.40;99.90;;;;;;5075239;28;20039;-71
2023/10/04 00:37:57;;;;;;;179.73;109.43;;;28.40;99.90;;;;;;5075535;28;20024;-69
2023/10/04 00:40:34;;;;;;;229.55;152.73;;;28.50;99.90;;;;;;5075388;28;20526;-71
2023/10/04 00:43:02;;;;;;;203.65;123.47;;;28.50;99.90;;;;;;5076785;28;20024;-69
2023/10/04 00:45:32;;;;;;;175.18;107.55;;;28.50;99.90;;;;;;5095340;28;20028;-67
2023/10/04 00:48:04;;;;;;;190.27;121.93;;;28.60;99.90;;;;;;5089194;28;20031;-69
2023/10/04 00:50:34;;;;;;;176.32;112.00;;;28.60;99.90;;;;;;5092982;28;20016;-66
2023/10/04 00:53:02;;;;;;;181.13;109.97;;;28.60;99.90;;;;;;5082140;28;20431;-67
2023/10/04 00:55:31;;;;;;;160.27;103.57;;;28.70;99.90;;;;;;5085005;28;20107;-67
2023/10/04 00:58:02;;;;;;;178.68;106.20;;;28.70;99.90;;;;;;5103281;28;20190;-69
2023/10/04 01:00:29;;;;;;;171.88;106.53;;;28.80;99.90;;;;;;5085049;28;20092;-68
2023/10/04 01:02:56;;;;;;;167.82;102.00;;;28.80;99.90;;;;;;5091526;28;20032;-69
2023/10/04 01:05:26;;;;;;;171.63;104.00;;;28.90;99.90;;;;;;5092004;28;20039;-69
2023/10/04 01:07:54;;;;;;;165.48;103.63;;;29.00;99.90;;;;;;5090420;28;20387;-67
2023/10/04 01:10:26;;;;;;;161.48;98.82;;;29.00;99.90;;;;;;5085716;28;20020;-69
2023/10/04 01:12:52;;;;;;;;;;;29.00;99.90;;;;;;5085587;28;20013;-68
2023/10/04 01:17:53;;;;;;;172.05;103.72;;;29.10;99.90;;;;;;5085002;28;20025;-67
2023/10/04 01:20:27;;;;;;;140.20;88.57;;;29.10;99.90;;;;;;5085149;28;20024;-68
2023/10/04 01:23:00;;;;;;;122.15;76.15;;;29.20;99.90;;;;;;5085716;28;20096;-65
2023/10/04 01:25:35;;;;;;;148.80;86.07;;;29.30;99.90;;;;;;5089674;28;20104;-67
2023/10/04 01:28:47;;;;;;;121.20;73.35;;;29.40;99.90;;;;;;5089260;28;20012;-67
2023/10/04 01:30:56;;;;;;;124.20;82.75;;;29.40;99.90;;;;;;5068129;28;20028;-67
2023/10/04 01:33:23;;;;;;;231.88;146.20;;;29.50;99.90;;;;;;5085006;28;20389;-69
2023/10/04 01:35:53;;;;;;;159.45;102.88;;;29.60;99.90;;;;;;5087905;28;20040;-67
2023/10/04 01:38:31;;;;;;;125.72;85.25;;;29.60;99.90;;;;;;5078006;28;20040;-67
2023/10/04 01:40:58;;;;;;;123.85;76.35;;;29.60;99.90;;;;;;5074954;28;20035;-66
2023/10/04 01:43:27;;;;;;;128.55;76.95;;;29.60;99.90;;;;;;5075601;28;20043;-68
2023/10/04 01:46:00;;;;;;;130.35;76.68;;;29.70;99.90;;;;;;5084893;28;20493;-67
2023/10/04 01:48:35;;;;;;;117.75;72.75;;;29.80;99.90;;;;;;5084601;28;20453;-67
2023/10/04 01:51:03;;;;;;;110.13;69.35;;;29.80;99.90;;;;;;5083313;28;20394;-66
2023/10/04 01:53:30;;;;;;;113.13;70.47;;;29.90;99.90;;;;;;5083653;28;20085;-66
2023/10/04 01:55:56;;;;;;;120.75;70.07;;;29.90;99.90;;;;;;5093642;28;20035;-65
2023/10/04 01:58:23;;;;;;;117.90;68.53;;;30.00;99.90;;;;;;5094432;28;20032;-67
2023/10/04 02:00:56;;;;;;;123.13;75.38;;;30.10;99.90;;;;;;5094270;28;20054;-66
2023/10/04 02:03:23;;;;;;;101.15;63.95;;;30.10;99.90;;;;;;5095050;28;20123;-65
2023/10/04 02:05:57;;;;;;;113.28;66.22;;;30.20;99.90;;;;;;5093973;28;20031;-66
2023/10/04 02:08:24;;;;;;;137.25;65.93;;;30.30;99.90;;;;;;5097458;28;20101;-65
2023/10/04 02:10:52;;;;;;;104.82;60.15;;;30.30;99.90;;;;;;5094974;28;20027;-67
2023/10/04 02:13:19;;;;;;;175.10;87.07;;;30.40;99.90;;;;;;5094336;28;20043;-68
2023/10/04 02:15:48;;;;;;;200.18;118.97;;;30.40;99.90;;;;;;5094230;28;20026;-66
2023/10/04 02:18:15;;;;;;;128.82;79.60;;;30.50;99.90;;;;;;5093998;28;20020;-65
2023/10/04 02:20:47;;;;;;;286.63;195.88;;;30.50;99.90;;;;;;5109270;28;20058;-69
2023/10/04 02:23:14;;;;;;;115.10;74.85;;;30.60;99.90;;;;;;5097992;28;20489;-69
2023/10/04 02:25:41;;;;;;;103.13;59.88;;;30.70;99.90;;;;;;5077868;28;20040;-70
2023/10/04 02:28:25;;;;;;;106.07;62.88;;;30.70;99.90;;;;;;5087554;28;20016;-68
2023/10/04 02:30:56;;;;;;;117.63;69.22;;;30.80;99.90;;;;;;5091995;28;20111;-69
2023/10/04 02:33:23;;;;;;;151.65;91.82;;;30.90;99.90;;;;;;5089443;28;20016;-67
2023/10/04 02:35:50;;;;;;;195.02;108.63;;;31.00;99.90;;;;;;5074628;28;20077;-68
2023/10/04 02:38:26;;;;;;;232.20;138.35;;;31.00;99.90;;;;;;5083126;28;20028;-68
2023/10/04 02:40:56;;;;;;;210.60;117.72;;;31.10;99.90;;;;;;5075567;28;20475;-68
2023/10/04 02:43:26;;;;;;;251.15;134.23;;;31.20;99.90;;;;;;5082016;28;20028;-68
2023/10/04 02:45:53;;;;;;;255.75;144.35;;;31.20;99.90;;;;;;5100838;28;20055;-68
2023/10/04 02:48:20;;;;;;;275.08;149.90;;;31.20;99.90;;;;;;5089116;28;20024;-68
2023/10/04 02:50:47;;;;;;;262.55;142.23;;;31.30;99.90;;;;;;5089388;28;20523;-69
2023/10/04 02:53:17;;;;;;;281.63;147.85;;;31.30;99.90;;;;;;5084733;28;20150;-67
2023/10/04 02:55:45;;;;;;;280.35;152.60;;;31.30;99.90;;;;;;5087574;28;20024;-69
2023/10/04 02:58:13;;;;;;;274.92;145.05;;;31.40;99.90;;;;;;5084699;28;20020;-69
2023/10/04 03:00:45;;;;;;;278.90;145.65;;;31.40;99.90;;;;;;5093341;28;20044;-66
2023/10/04 03:03:13;;;;;;;262.55;142.77;;;31.50;99.90;;;;;;5085817;28;20115;-65
2023/10/04 03:05:40;;;;;;;257.70;141.35;;;31.50;99.90;;;;;;5086709;28;20040;-67
2023/10/04 03:08:08;;;;;;;268.20;145.45;;;31.60;99.90;;;;;;5095538;28;20081;-67
2023/10/04 03:10:36;;;;;;;272.83;152.07;;;31.70;99.90;;;;;;5086272;28;20475;-68
2023/10/04 03:13:12;;;;;;;264.88;148.60;;;31.70;99.90;;;;;;5087552;28;20493;-66
2023/10/04 03:15:39;;;;;;;220.60;122.90;;;31.80;99.90;;;;;;5086870;28;20027;-67
2023/10/04 03:18:21;;;;;;;183.73;101.78;;;31.90;99.90;;;;;;5084363;28;20056;-67
2023/10/04 03:23:25;;;;;;;87.75;53.85;;;32.10;99.90;;;;;;5084368;28;20127;-68
2023/10/04 03:25:57;;;;;;;69.65;44.03;;;32.10;99.90;;;;;;5087502;28;20028;-67
2023/10/04 03:28:26;;;;;;;60.72;40.20;;;32.20;99.90;;;;;;5087063;28;20099;-68
2023/10/04 03:30:53;;;;;;;54.10;38.35;;;32.30;99.90;;;;;;5086189;28;20016;-68
2023/10/04 03:33:20;;;;;;;75.70;45.15;;;32.20;99.90;;;;;;5083641;28;20092;-68
2023/10/04 03:35:48;;;;;;;71.97;48.95;;;32.20;99.90;;;;;;5090259;28;20024;-67
2023/10/04 03:38:15;;;;;;;72.57;46.08;;;32.30;99.90;;;;;;5090720;28;20044;-67
2023/10/04 03:40:43;;;;;;;75.00;49.88;;;32.30;99.90;;;;;;5088442;28;20046;-68
2023/10/04 03:43:15;;;;;;;93.97;62.85;;;32.40;99.90;;;;;;5012684;28;20046;-68
2023/10/04 03:45:42;;;;;;;96.20;59.45;;;32.50;99.90;;;;;;5051458;23;20043;-68
2023/10/04 03:48:16;;;;;;;98.80;63.80;;;32.60;99.90;;;;;;5119070;27;20027;-67
2023/10/04 03:50:50;;;;;;;102.45;68.60;;;32.70;99.90;;;;;;5117192;28;20023;-73
2023/10/04 03:53:20;;;;;;;99.47;66.82;;;32.70;99.90;;;;;;5116926;28;20031;-73
2023/10/04 03:55:47;;;;;;;96.35;63.85;;;32.90;99.90;;;;;;5116760;28;20020;-69
2023/10/04 03:58:19;;;;;;;110.00;76.63;;;32.90;99.90;;;;;;5117486;28;20011;-70
2023/10/04 04:00:46;;;;;;;160.82;118.95;;;32.90;99.90;;;;;;5112485;27;20031;-70
2023/10/04 04:03:13;;;;;;;194.05;142.30;;;33.00;99.90;;;;;;5091858;28;20023;-71
2023/10/04 04:05:44;;;;;;;81.20;52.67;;;33.00;99.90;;;;;;5080944;28;20029;-69
2023/10/04 04:08:13;;;;;;;95.45;61.05;;;33.10;99.90;;;;;;5087348;28;20021;-67
2023/10/04 04:10:41;;;;;;;80.05;56.08;;;33.10;99.90;;;;;;5091457;28;20466;-69
2023/10/04 04:13:08;;;;;;;74.80;52.13;;;33.10;99.90;;;;;;5083002;28;20024;-69
2023/10/04 04:15:39;;;;;;;90.88;61.40;;;33.00;99.90;;;;;;5088989;28;20024;-69
2023/10/04 04:18:06;;;;;;;104.38;67.85;;;33.10;99.90;;;;;;5083964;28;20032;-68
2023/10/04 04:20:36;;;;;;;126.20;77.60;;;33.30;99.90;;;;;;5082960;28;20039;-70
2023/10/04 04:23:05;;;;;;;116.00;72.53;;;33.20;99.90;;;;;;5085959;28;20070;-69
2023/10/04 04:25:33;;;;;;;113.20;70.88;;;33.20;99.90;;;;;;5084814;28;20036;-68
2023/10/04 04:28:01;;;;;;;122.07;75.90;;;33.30;99.90;;;;;;5083864;28;20059;-69
2023/10/04 04:30:31;;;;;;;112.65;74.25;;;33.40;99.90;;;;;;5084409;28;20650;-68
2023/10/04 04:32:58;;;;;;;122.47;78.28;;;33.50;99.90;;;;;;5088242;28;20027;-68
2023/10/04 04:38:22;;;;;;;120.55;74.90;;;33.40;99.90;;;;;;5085586;28;20016;-69
2023/10/04 04:40:56;;;;;;;124.30;77.18;;;33.50;99.90;;;;;;5087410;28;20040;-66
2023/10/04 04:43:37;;;;;;;123.72;77.97;;;33.50;99.90;;;;;;5086608;28;20028;-67
2023/10/04 04:46:14;;;;;;;135.57;86.38;;;33.60;99.90;;;;;;5081815;28;20052;-69
2023/10/04 04:48:42;;;;;;;120.07;82.78;;;33.70;99.90;;;;;;5081436;28;20020;-68
2023/10/04 04:51:12;;;;;;;145.38;95.32;;;33.70;99.90;;;;;;5080638;28;20028;-68
2023/10/04 04:53:39;;;;;;;142.57;97.32;;;33.70;99.90;;;;;;5086532;28;20502;-66
2023/10/04 04:56:12;;;;;;;142.05;92.38;;;33.70;99.90;;;;;;5084737;28;20063;-69
2023/10/04 04:58:48;;;;;;;145.25;95.47;;;33.80;99.90;;;;;;5085409;28;20020;-69
2023/10/04 05:01:15;;;;;;;139.48;93.88;;;33.80;99.90;;;;;;5086528;28;20016;-69
2023/10/04 05:03:45;;;;;;;137.30;93.85;;;33.90;99.90;;;;;;5089316;28;20482;-72
2023/10/04 05:06:16;;;;;;;145.52;97.43;;;33.90;99.90;;;;;;5090227;28;20028;-74
2023/10/04 05:08:43;;;;;;;129.38;91.53;;;33.90;99.90;;;;;;5089668;28;20398;-72
2023/10/04 05:11:09;;;;;;;143.52;95.60;;;33.90;99.90;;;;;;5088262;28;20039;-71
2023/10/04 05:13:36;;;;;;;149.80;97.30;;;34.00;99.90;;;;;;5089936;28;20023;-70
2023/10/04 05:16:05;;;;;;;148.98;100.05;;;34.20;99.90;;;;;;5089418;28;20147;-70
2023/10/04 05:18:32;;;;;;;149.23;99.15;;;34.30;99.90;;;;;;5078539;28;20036;-71
2023/10/04 05:21:00;;;;;;;154.02;101.43;;;34.30;99.90;;;;;;5080277;28;20013;-70
2023/10/04 05:23:29;;;;;;;155.00;100.25;;;34.30;99.90;;;;;;5088304;28;20027;-68
2023/10/04 05:25:55;;;;;;;157.75;105.10;;;34.40;99.90;;;;;;5088476;28;20123;-73
2023/10/04 05:28:23;;;;;;;157.27;107.18;;;34.40;99.90;;;;;;5092065;28;20073;-72
2023/10/04 05:30:51;;;;;;;155.10;103.57;;;34.30;99.90;;;;;;5084607;28;20016;-69
2023/10/04 05:33:19;;;;;;;158.20;105.85;;;34.30;99.90;;;;;;5083094;28;20020;-72
2023/10/04 05:35:48;;;;;;;160.65;107.22;;;34.30;99.90;;;;;;5081870;28;20058;-73
2023/10/04 05:38:17;;;;;;;150.90;102.63;;;34.30;99.90;;;;;;5083189;28;20520;-70
2023/10/04 05:40:47;;;;;;;147.25;98.60;;;34.20;99.90;;;;;;5090225;28;20024;-69
2023/10/04 05:43:16;;;;;;;143.95;98.38;;;34.20;99.90;;;;;;5085705;28;20081;-73
2023/10/04 05:45:43;;;;;;;153.07;101.93;;;34.20;99.90;;;;;;5083542;28;20217;-69
2023/10/04 05:48:12;;;;;;;148.52;101.07;;;34.20;99.90;;;;;;5093281;28;20047;-71
2023/10/04 05:50:39;;;;;;;139.70;98.57;;;34.20;99.90;;;;;;5086953;28;20103;-71
2023/10/04 05:53:07;;;;;;;141.07;95.35;;;34.20;99.90;;;;;;5082249;28;20028;-72
2023/10/04 05:55:42;;;;;;;137.98;95.43;;;34.20;99.90;;;;;;5089053;28;20032;-71
2023/10/04 05:58:13;;;;;;;137.23;95.15;;;34.20;99.90;;;;;;5089633;28;20051;-74
2023/10/04 06:00:42;;;;;;;146.65;103.53;;;34.20;99.90;;;;;;5083942;28;20077;-71
2023/10/04 06:03:11;;;;;;;177.30;128.35;;;34.30;99.90;;;;;;5082750;28;20028;-70
2023/10/04 06:05:39;;;;;;;152.50;110.85;;;34.30;99.90;;;;;;5083136;28;20091;-71
2023/10/04 06:08:15;;;;;;;277.02;194.43;;;34.30;99.90;;;;;;5055582;28;20645;-70
2023/10/04 06:10:43;;;;;;;223.60;157.38;;;34.20;99.90;;;;;;5075644;28;20021;-71
2023/10/04 06:13:12;;;;;;;217.82;162.52;;;34.30;99.90;;;;;;5082089;28;20024;-66
2023/10/04 06:15:44;;;;;;;140.65;102.78;;;34.30;99.90;;;;;;5082730;28;20032;-70
2023/10/04 06:18:14;;;;;;;139.23;90.45;;;34.40;99.90;;;;;;5087797;28;20107;-71
2023/10/04 06:20:41;;;;;;;114.30;82.60;;;34.40;99.90;;;;;;5081777;28;20035;-71
2023/10/04 06:23:14;;;;;;;122.13;85.38;;;34.40;99.90;;;;;;5083330;28;20016;-70
2023/10/04 06:25:45;;;;;;;123.95;84.38;;;34.40;99.90;;;;;;5081786;28;20499;-70
2023/10/04 06:28:12;;;;;;;125.30;83.55;;;34.40;99.90;;;;;;5091434;28;20021;-67
2023/10/04 06:30:40;;;;;;;112.97;84.78;;;34.30;99.90;;;;;;5082879;28;20012;-67
2023/10/04 06:33:09;;;;;;;119.55;80.65;;;34.30;99.90;;;;;;5089774;28;20026;-67
2023/10/04 06:35:43;;;;;;;134.38;86.25;;;34.20;99.90;;;;;;5083662;28;20108;-69
2023/10/04 06:38:10;;;;;;;105.05;76.38;;;34.30;99.90;;;;;;5086326;28;20052;-68
2023/10/04 06:40:38;;;;;;;102.28;76.95;;;34.30;99.90;;;;;;5087517;28;20036;-68
2023/10/04 06:43:08;;;;;;;102.05;78.55;;;34.30;99.90;;;;;;5082452;28;20031;-69
2023/10/04 06:45:36;;;;;;;118.82;88.78;;;34.20;99.90;;;;;;5087971;28;20051;-69
2023/10/04 06:48:04;;;;;;;111.90;81.63;;;34.20;99.90;;;;;;5087301;28;20113;-69
2023/10/04 06:50:32;;;;;;;110.38;84.28;;;34.20;99.90;;;;;;5087943;28;20016;-71
2023/10/04 06:53:01;;;;;;;104.55;79.70;;;34.20;99.90;;;;;;5084829;28;20023;-71
2023/10/04 06:55:28;;;;;;;103.35;79.57;;;34.20;99.90;;;;;;5083075;28;20016;-71
2023/10/04 06:57:55;;;;;;;194.57;157.07;;;34.30;99.90;;;;;;5086791;28;20374;-69
2023/10/04 07:00:29;;;;;;;214.07;161.80;;;34.30;99.90;;;;;;5083056;28;20081;-68
2023/10/04 07:03:01;;;;;;;156.73;119.68;;;34.30;99.90;;;;;;5083964;28;20385;-67
2023/10/04 07:05:38;;;;;;;156.25;121.43;;;34.30;99.90;;;;;;5082919;28;20016;-69
2023/10/04 07:08:12;;;;;;;114.13;90.30;;;34.30;99.90;;;;;;5086921;28;20078;-68
2023/10/04 07:10:39;;;;;;;111.05;86.65;;;34.30;99.90;;;;;;5089935;28;20020;-70
2023/10/04 07:13:07;;;;;;;120.43;87.65;;;34.40;99.90;;;;;;5088190;28;20405;-71
2023/10/04 07:15:41;;;;;;;122.07;90.50;;;34.50;99.90;;;;;;5081705;28;20021;-69
2023/10/04 07:18:10;;;;;;;148.05;103.30;;;34.50;99.90;;;;;;5079557;28;20383;-69
2023/10/04 07:20:37;;;;;;;145.73;108.80;;;34.50;99.90;;;;;;5088797;28;20099;-69
2023/10/04 07:23:07;;;;;;;156.75;106.05;;;34.60;99.90;;;;;;5095592;28;20438;-68
2023/10/04 07:25:38;;;;;;;144.77;105.28;;;34.60;99.90;;;;;;5093235;28;20020;-69
2023/10/04 07:28:09;;;;;;;162.30;108.90;;;34.50;99.90;;;;;;5088168;28;20016;-67
2023/10/04 07:30:35;;;;;;;152.68;111.35;;;34.50;99.90;;;;;;5092377;28;20020;-68
2023/10/04 07:33:05;;;;;;;140.13;103.75;;;34.60;99.90;;;;;;5091821;28;20027;-68
2023/10/04 07:35:33;;;;;;;133.60;100.40;;;34.50;99.90;;;;;;5080632;28;20104;-69
2023/10/04 07:38:02;;;;;;;127.07;96.03;;;34.50;99.90;;;;;;5092863;28;20016;-69
2023/10/04 07:40:31;;;;;;;123.07;95.10;;;34.50;99.90;;;;;;5093503;28;20126;-68
2023/10/04 07:42:59;;;;;;;135.77;99.45;;;34.50;99.90;;;;;;5090019;28;20040;-68
2023/10/04 07:45:28;;;;;;;138.40;102.07;;;34.40;99.90;;;;;;5090167;28;20020;-65
2023/10/04 07:47:56;;;;;;;127.50;94.30;;;34.40;99.90;;;;;;5094748;28;20546;-68
2023/10/04 07:50:25;;;;;;;133.52;94.65;;;34.40;99.90;;;;;;5097822;28;20016;-67
2023/10/04 07:52:59;;;;;;;140.32;99.53;;;34.50;99.90;;;;;;5094809;28;20020;-68
2023/10/04 07:55:25;;;;;;;138.10;97.47;;;34.50;99.90;;;;;;5091109;28;20105;-68
2023/10/04 07:58:03;;;;;;;139.63;96.72;;;34.40;99.90;;;;;;5091482;28;20024;-70
2023/10/04 08:00:30;;;;;;;202.25;141.65;;;34.50;99.90;;;;;;5076987;28;20024;-69
2023/10/04 08:02:57;;;;;;;169.80;121.28;;;34.50;99.90;;;;;;5087763;28;20254;-68
2023/10/04 08:05:26;;;;;;;149.73;109.22;;;34.40;99.90;;;;;;5091540;28;20016;-69
2023/10/04 08:07:55;;;;;;;141.90;99.43;;;34.40;99.90;;;;;;5093578;28;20474;-69
2023/10/04 08:10:25;;;;;;;126.93;90.80;;;34.40;99.90;;;;;;5091600;28;20020;-70
2023/10/04 08:12:53;;;;;;;121.32;86.32;;;34.40;99.90;;;;;;5092732;28;20024;-68
2023/10/04 08:15:22;;;;;;;127.22;84.05;;;34.30;99.90;;;;;;5089157;28;20020;-71
2023/10/04 08:17:49;;;;;;;129.00;86.20;;;34.30;99.90;;;;;;5092808;28;20035;-72
2023/10/04 08:20:16;;;;;;;114.50;78.50;;;34.40;99.90;;;;;;5096690;28;20099;-71
2023/10/04 08:22:44;;;;;;;336.65;261.85;;;34.40;99.90;;;;;;5094286;28;20394;-71
2023/10/04 08:25:25;;;;;;;121.10;86.97;;;34.30;99.90;;;;;;5085510;28;20074;-65
2023/10/04 08:27:51;;;;;;;106.95;76.97;;;34.30;99.90;;;;;;5077397;28;20033;-70
2023/10/04 08:30:19;;;;;;;116.95;77.13;;;34.30;99.90;;;;;;5085130;28;20024;-69
2023/10/04 08:32:48;;;;;;;114.53;76.15;;;34.40;99.90;;;;;;5086379;28;20086;-71
2023/10/04 08:35:24;;;;;;;111.18;76.65;;;34.40;99.90;;;;;;5086502;28;20025;-71
2023/10/04 08:37:57;;;;;;;110.05;75.70;;;34.40;99.90;;;;;;5086321;28;20335;-70
2023/10/04 08:40:28;;;;;;;104.28;74.30;;;34.30;99.90;;;;;;5085797;28;20013;-70
2023/10/04 08:42:56;;;;;;;109.05;76.32;;;34.30;99.90;;;;;;5085906;28;20031;-73
2023/10/04 08:45:25;;;;;;;130.90;83.53;;;34.30;99.90;;;;;;5080429;28;20024;-66
2023/10/04 08:47:59;;;;;;;121.90;86.63;;;34.30;99.90;;;;;;5077585;28;20028;-64
2023/10/04 08:50:56;;;;;;;143.70;101.45;;;34.30;99.90;;;;;;5086820;28;20027;-68
2023/10/04 08:53:40;;;;;;;180.88;124.30;;;34.30;99.90;;;;;;5083773;28;20028;-66
2023/10/04 08:56:11;;;;;;;240.70;156.57;;;34.30;99.90;;;;;;5091263;28;20073;-67
2023/10/04 08:58:46;;;;;;;175.85;116.68;;;34.20;99.90;;;;;;5085739;28;20031;-72
2023/10/04 09:01:15;;;;;;;154.00;104.50;;;34.20;99.90;;;;;;5084801;28;20031;-71
2023/10/04 09:03:43;;;;;;;141.90;95.68;;;34.20;99.90;;;;;;5086116;28;20107;-74
2023/10/04 09:06:11;;;;;;;131.90;87.03;;;34.10;99.90;;;;;;5083054;28;20024;-72
2023/10/04 09:08:41;;;;;;;140.07;89.35;;;34.20;99.90;;;;;;5086284;28;20032;-73
2023/10/04 09:11:12;;;;;;;147.10;96.22;;;34.10;99.90;;;;;;5089394;28;20027;-72
2023/10/04 09:13:47;;;;;;;312.35;228.10;;;34.10;99.90;;;;;;5087672;28;20524;-66
2023/10/04 09:16:25;;;;;;;175.57;123.38;;;34.10;99.90;;;;;;5087276;28;20028;-70
2023/10/04 09:19:17;;;;;;;158.25;104.60;;;34.20;99.90;;;;;;5086169;28;20101;-67
2023/10/04 09:21:50;;;;;;;159.63;99.43;;;34.10;99.90;;;;;;5086361;28;20099;-70
2023/10/04 09:24:17;;;;;;;150.10;99.10;;;34.10;99.90;;;;;;5084822;28;20039;-70
2023/10/04 09:26:54;;;;;;;158.52;98.03;;;34.10;99.90;;;;;;5084345;28;20107;-70
2023/10/04 09:29:36;;;;;;;154.02;94.00;;;34.10;99.90;;;;;;5084714;28;20124;-70
2023/10/04 09:32:03;;;;;;;;;;;34.10;99.90;;;;;;5091599;28;20062;-71
2023/10/04 09:34:30;;;;;;;162.07;106.03;;;34.10;99.90;;;;;;5086157;28;20255;-71
2023/10/04 09:36:57;;;;;;;176.35;111.88;;;34.10;99.90;;;;;;5084976;28;20050;-71
2023/10/04 09:39:27;;;;;;;168.20;109.55;;;34.00;99.90;;;;;;5083612;28;20096;-71
2023/10/04 09:41:56;;;;;;;157.32;100.57;;;34.00;99.90;;;;;;5084445;28;20016;-71
2023/10/04 09:44:27;;;;;;;174.18;111.45;;;34.00;99.90;;;;;;5085249;28;20089;-68
2023/10/04 09:47:01;;;;;;;186.57;120.75;;;34.00;99.90;;;;;;5088221;28;20562;-69
2023/10/04 09:49:34;;;;;;;190.80;124.45;;;33.90;99.90;;;;;;5091711;28;20035;-72
2023/10/04 09:52:06;;;;;;;189.65;126.40;;;33.90;99.90;;;;;;5085029;28;20016;-71
2023/10/04 09:54:34;;;;;;;189.88;126.35;;;33.80;99.90;;;;;;5083331;28;20031;-72
2023/10/04 09:57:08;;;;;;;195.77;127.82;;;33.80;99.90;;;;;;5082956;28;20420;-73
2023/10/04 09:59:39;;;;;;;195.45;125.60;;;33.80;99.90;;;;;;5083302;28;20044;-72
2023/10/04 10:02:10;;;;;;;194.75;133.00;;;33.70;99.90;;;;;;5084402;28;20020;-70
2023/10/04 10:04:48;;;;;;;214.90;141.90;;;33.70;99.90;;;;;;5086939;28;20032;-73
2023/10/04 10:07:16;;;;;;;208.35;136.27;;;33.60;99.90;;;;;;5087571;28;20104;-70
2023/10/04 10:10:13;;;;;;;216.55;139.00;;;33.60;99.90;;;;;;5087458;28;20077;-70
2023/10/04 10:12:42;;;;;;;212.93;137.63;;;33.60;99.90;;;;;;5087690;28;20101;-70
2023/10/04 10:15:11;;;;;;;212.20;138.88;;;33.60;99.90;;;;;;5087187;28;20039;-69
2023/10/04 10:17:40;;;;;;;206.50;135.32;;;33.50;99.90;;;;;;5088331;28;20047;-69
2023/10/04 10:20:09;;;;;;;204.77;131.48;;;33.50;99.90;;;;;;5068606;28;20397;-69
2023/10/04 10:22:58;;;;;;;210.35;128.90;;;33.40;99.90;;;;;;5077146;28;20107;-67
2023/10/04 10:25:25;;;;;;;201.13;132.65;;;33.40;99.90;;;;;;5086376;28;20021;-68
2023/10/04 10:27:57;;;;;;;202.27;132.55;;;33.40;99.90;;;;;;5086714;28;20023;-68
2023/10/04 10:30:25;;;;;;;208.32;129.25;;;33.30;99.90;;;;;;5084693;28;20017;-69
2023/10/04 10:32:54;;;;;;;219.23;136.85;;;33.30;99.90;;;;;;5085150;28;20027;-67
2023/10/04 10:35:59;;;;;;;201.90;132.80;;;33.30;99.90;;;;;;5089238;28;20168;-67
2023/10/04 10:38:40;;;;;;;200.65;126.03;;;33.20;99.90;;;;;;5083094;28;20032;-67
2023/10/04 10:41:08;;;;;;;200.10;127.25;;;33.20;99.90;;;;;;5081142;28;20099;-67
2023/10/04 10:43:55;;;;;;;192.75;122.68;;;33.10;99.90;;;;;;5082769;28;20394;-67
2023/10/04 10:46:31;;;;;;;230.13;140.38;;;33.10;99.90;;;;;;5087169;28;20118;-68
2023/10/04 10:49:03;;;;;;;214.73;138.90;;;33.00;99.90;;;;;;5087811;28;20020;-68
2023/10/04 10:51:43;;;;;;;220.57;141.85;;;32.90;99.90;;;;;;5083193;28;20045;-67
2023/10/04 10:54:10;;;;;;;220.32;136.25;;;32.80;99.90;;;;;;5083452;28;20450;-66
2023/10/04 10:56:39;;;;;;;253.07;173.20;;;32.70;99.90;;;;;;5080980;28;20032;-68
2023/10/04 10:59:06;;;;;;;251.38;155.13;;;32.70;99.90;;;;;;5092816;28;20027;-67
2023/10/04 11:01:34;;;;;;;247.85;160.20;;;32.70;99.90;;;;;;5089204;28;20032;-66
2023/10/04 11:04:00;;;;;;;234.77;151.45;;;32.70;99.90;;;;;;5081394;28;20031;-69
2023/10/04 11:06:27;;;;;;;250.80;165.88;;;32.60;99.90;;;;;;5081795;28;20035;-70
2023/10/04 11:08:55;;;;;;;241.85;152.18;;;32.60;99.90;;;;;;5082699;28;20074;-71
2023/10/04 11:11:23;;;;;;;225.30;144.52;;;32.60;99.90;;;;;;5084250;28;20449;-70
2023/10/04 11:13:49;;;;;;;250.45;153.70;;;32.50;99.90;;;;;;5081774;28;20054;-72
2023/10/04 11:16:19;;;;;;;244.50;147.52;;;32.50;99.90;;;;;;5087147;28;20055;-66
2023/10/04 11:18:47;;;;;;;223.35;145.02;;;32.50;99.90;;;;;;5086886;28;20158;-66
2023/10/04 11:21:14;;;;;;;226.45;145.00;;;32.50;99.90;;;;;;5084650;28;20028;-70
2023/10/04 11:23:41;;;;;;;243.18;148.35;;;32.50;99.90;;;;;;5077862;28;20028;-69
2023/10/04 11:26:09;;;;;;;234.68;151.63;;;32.50;99.90;;;;;;5082886;28;20394;-69
2023/10/04 11:28:35;;;;;;;231.48;147.65;;;32.40;99.90;;;;;;5082995;28;20290;-66
2023/10/04 11:31:02;;;;;;;237.98;154.35;;;32.40;99.90;;;;;;5082546;28;20475;-65
2023/10/04 11:33:29;;;;;;;235.70;146.13;;;32.40;99.90;;;;;;5080164;28;20509;-64
2023/10/04 11:35:57;;;;;;;225.70;141.38;;;32.40;99.90;;;;;;5082480;28;20056;-64
2023/10/04 11:38:27;;;;;;;233.57;145.10;;;32.40;99.90;;;;;;5079156;28;20024;-65
2023/10/04 11:40:54;;;;;;;229.27;140.60;;;32.40;99.90;;;;;;5081407;28;20020;-66
2023/10/04 11:43:26;;;;;;;234.00;140.48;;;32.40;99.90;;;;;;5082394;28;20028;-65
2023/10/04 11:46:03;;;;;;;212.93;136.10;;;32.40;99.90;;;;;;5082009;28;20049;-64
2023/10/04 11:48:30;;;;;;;221.15;137.32;;;32.30;99.90;;;;;;5087471;28;20028;-63
2023/10/04 11:50:57;;;;;;;179.85;108.88;;;32.30;99.90;;;;;;5085341;28;20518;-66
2023/10/04 11:53:49;;;;;;;180.98;111.97;;;32.20;99.90;;;;;;5076140;28;20422;-66
2023/10/04 11:56:16;;;;;;;188.82;119.75;;;32.20;99.90;;;;;;5093906;28;20078;-66
2023/10/04 11:58:49;;;;;;;185.70;114.60;;;32.20;99.90;;;;;;5096090;28;20028;-66
2023/10/04 12:01:20;;;;;;;182.98;116.45;;;32.10;99.90;;;;;;5095618;28;20036;-66
2023/10/04 12:03:47;;;;;;;169.18;107.05;;;32.10;99.90;;;;;;5095693;28;20036;-66
2023/10/04 12:06:16;;;;;;;145.23;96.25;;;32.00;99.90;;;;;;5095597;28;20103;-65
2023/10/04 12:08:43;;;;;;;151.65;92.43;;;32.00;99.90;;;;;;5091876;28;20039;-65
2023/10/04 12:11:21;;;;;;;150.70;91.57;;;31.90;99.90;;;;;;5088258;28;20017;-66
2023/10/04 12:13:49;;;;;;;132.93;82.07;;;31.80;99.90;;;;;;5086588;28;20244;-64
2023/10/04 12:16:20;;;;;;;136.43;81.95;;;31.80;99.90;;;;;;5084159;28;20053;-64
2023/10/04 12:18:47;;;;;;;122.63;75.97;;;31.80;99.90;;;;;;5086170;28;20436;-64
2023/10/04 12:21:16;;;;;;;115.18;71.50;;;31.70;99.90;;;;;;5084868;28;20398;-64
2023/10/04 12:23:46;;;;;;;122.28;74.03;;;31.70;99.90;;;;;;5083785;28;20538;-66
2023/10/04 12:26:16;;;;;;;107.15;69.13;;;31.70;99.90;;;;;;5084696;28;20080;-66
2023/10/04 12:28:43;;;;;;;105.65;66.25;;;31.60;99.90;;;;;;5086727;28;20047;-65
2023/10/04 12:31:10;;;;;;;114.68;74.70;;;31.60;99.90;;;;;;5093282;28;20506;-66
2023/10/04 12:33:38;;;;;;;107.50;73.50;;;31.50;99.90;;;;;;5087606;28;20013;-65
2023/10/04 12:36:05;;;;;;;122.75;75.13;;;31.50;99.90;;;;;;5086062;28;20028;-65